sensor_id;sensor_type;location;lat;lon;timestamp;P1;durP1;ratioP1;P2;durP2;ratioP2
63492;SDS011;49638;47.526;10.028;2022-09-25T00:01:54;3.75;;;3.00;;
63492;SDS011;49638;47.526;10.028;2022-09-25T00:04:54;3.25;;;2.78;;
63492;SDS011;49638;47.526;10.028;2022-09-25T00:07:54;3.35;;;2.63;;
63492;SDS011;49638;47.526;10.028;2022-09-25T00:10:55;4.80;;;2.78;;
63492;SDS011;49638;47.526;10.028;2022-09-25T00:13:56;2.90;;;2.42;;
63492;SDS011;49638;47.526;10.028;2022-09-25T00:16:57;4.28;;;2.50;;
63492;SDS011;49638;47.526;10.028;2022-09-25T00:19:58;4.10;;;3.10;;
63492;SDS011;49638;47.526;10.028;2022-09-25T00:22:58;2.33;;;2.10;;
63492;SDS011;49638;47.526;10.028;2022-09-25T00:26:01;2.80;;;2.20;;
63492;SDS011;49638;47.526;10.028;2022-09-25T00:29:05;3.63;;;2.20;;
63492;SDS011;49638;47.526;10.028;2022-09-25T00:32:07;2.45;;;2.03;;
63492;SDS011;49638;47.526;10.028;2022-09-25T00:35:09;2.78;;;1.98;;
63492;SDS011;49638;47.526;10.028;2022-09-25T00:38:09;3.75;;;2.40;;
63492;SDS011;49638;47.526;10.028;2022-09-25T00:41:09;3.20;;;2.45;;
63492;SDS011;49638;47.526;10.028;2022-09-25T00:48:07;2.63;;;2.00;;
63492;SDS011;49638;47.526;10.028;2022-09-25T00:51:13;5.20;;;2.40;;
63492;SDS011;49638;47.526;10.028;2022-09-25T00:54:16;4.03;;;2.28;;
63492;SDS011;49638;47.526;10.028;2022-09-25T00:57:21;4.97;;;2.65;;
63492;SDS011;49638;47.526;10.028;2022-09-25T01:00:25;4.28;;;2.95;;
63492;SDS011;49638;47.526;10.028;2022-09-25T01:03:26;3.38;;;2.90;;
63492;SDS011;49638;47.526;10.028;2022-09-25T01:06:27;4.22;;;3.25;;
63492;SDS011;49638;47.526;10.028;2022-09-25T01:09:27;3.45;;;2.80;;
63492;SDS011;49638;47.526;10.028;2022-09-25T01:12:28;3.05;;;2.65;;
63492;SDS011;49638;47.526;10.028;2022-09-25T01:15:30;3.30;;;2.70;;
63492;SDS011;49638;47.526;10.028;2022-09-25T01:19:05;9.95;;;3.60;;
63492;SDS011;49638;47.526;10.028;2022-09-25T01:22:55;3.95;;;2.92;;
63492;SDS011;49638;47.526;10.028;2022-09-25T01:25:49;3.25;;;2.60;;
63492;SDS011;49638;47.526;10.028;2022-09-25T01:29:35;6.40;;;3.30;;
63492;SDS011;49638;47.526;10.028;2022-09-25T01:32:54;4.50;;;2.80;;
63492;SDS011;49638;47.526;10.028;2022-09-25T01:35:57;4.20;;;2.47;;
63492;SDS011;49638;47.526;10.028;2022-09-25T01:39:05;4.70;;;2.70;;
63492;SDS011;49638;47.526;10.028;2022-09-25T01:42:32;3.65;;;2.33;;
63492;SDS011;49638;47.526;10.028;2022-09-25T01:45:42;3.00;;;2.30;;
63492;SDS011;49638;47.526;10.028;2022-09-25T01:48:52;2.53;;;2.20;;
63492;SDS011;49638;47.526;10.028;2022-09-25T01:51:55;3.05;;;2.75;;
63492;SDS011;49638;47.526;10.028;2022-09-25T01:55:04;3.20;;;2.40;;
63492;SDS011;49638;47.526;10.028;2022-09-25T01:58:08;3.15;;;2.17;;
63492;SDS011;49638;47.526;10.028;2022-09-25T02:01:18;3.38;;;2.50;;
63492;SDS011;49638;47.526;10.028;2022-09-25T02:04:30;3.25;;;2.50;;
63492;SDS011;49638;47.526;10.028;2022-09-25T02:07:37;4.88;;;2.30;;
63492;SDS011;49638;47.526;10.028;2022-09-25T02:10:46;6.32;;;2.70;;
63492;SDS011;49638;47.526;10.028;2022-09-25T02:13:55;3.17;;;2.40;;
63492;SDS011;49638;47.526;10.028;2022-09-25T02:16:59;2.83;;;2.30;;
63492;SDS011;49638;47.526;10.028;2022-09-25T02:20:04;2.67;;;2.22;;
63492;SDS011;49638;47.526;10.028;2022-09-25T02:23:24;4.07;;;2.60;;
63492;SDS011;49638;47.526;10.028;2022-09-25T02:26:34;4.07;;;2.78;;
63492;SDS011;49638;47.526;10.028;2022-09-25T02:29:36;4.20;;;2.83;;
63492;SDS011;49638;47.526;10.028;2022-09-25T02:32:37;4.18;;;2.90;;
63492;SDS011;49638;47.526;10.028;2022-09-25T02:35:37;3.55;;;2.75;;
63492;SDS011;49638;47.526;10.028;2022-09-25T02:38:38;3.33;;;2.33;;
63492;SDS011;49638;47.526;10.028;2022-09-25T02:48:22;4.53;;;2.13;;
63492;SDS011;49638;47.526;10.028;2022-09-25T02:51:33;3.35;;;2.38;;
63492;SDS011;49638;47.526;10.028;2022-09-25T02:54:44;2.70;;;2.20;;
63492;SDS011;49638;47.526;10.028;2022-09-25T03:00:55;3.05;;;2.05;;
63492;SDS011;49638;47.526;10.028;2022-09-25T03:03:58;3.97;;;2.40;;
63492;SDS011;49638;47.526;10.028;2022-09-25T03:07:00;3.13;;;2.20;;
63492;SDS011;49638;47.526;10.028;2022-09-25T03:10:01;4.25;;;2.20;;
63492;SDS011;49638;47.526;10.028;2022-09-25T03:19:27;7.68;;;2.60;;
63492;SDS011;49638;47.526;10.028;2022-09-25T03:22:28;3.35;;;2.08;;
63492;SDS011;49638;47.526;10.028;2022-09-25T03:25:28;2.45;;;2.03;;
63492;SDS011;49638;47.526;10.028;2022-09-25T03:28:29;4.30;;;1.90;;
63492;SDS011;49638;47.526;10.028;2022-09-25T03:31:29;3.60;;;1.80;;
63492;SDS011;49638;47.526;10.028;2022-09-25T03:34:30;1.92;;;1.65;;
63492;SDS011;49638;47.526;10.028;2022-09-25T03:37:31;6.82;;;1.80;;
63492;SDS011;49638;47.526;10.028;2022-09-25T03:40:32;2.20;;;2.00;;
63492;SDS011;49638;47.526;10.028;2022-09-25T03:43:36;2.67;;;2.15;;
63492;SDS011;49638;47.526;10.028;2022-09-25T03:46:38;2.78;;;2.30;;
63492;SDS011;49638;47.526;10.028;2022-09-25T03:49:39;3.15;;;2.40;;
63492;SDS011;49638;47.526;10.028;2022-09-25T03:52:39;4.25;;;2.42;;
63492;SDS011;49638;47.526;10.028;2022-09-25T03:55:40;5.35;;;3.03;;
63492;SDS011;49638;47.526;10.028;2022-09-25T03:58:40;7.45;;;3.30;;
63492;SDS011;49638;47.526;10.028;2022-09-25T04:01:40;5.70;;;3.22;;
63492;SDS011;49638;47.526;10.028;2022-09-25T04:04:41;4.22;;;2.90;;
63492;SDS011;49638;47.526;10.028;2022-09-25T04:07:41;3.10;;;2.55;;
63492;SDS011;49638;47.526;10.028;2022-09-25T04:10:42;2.72;;;2.22;;
63492;SDS011;49638;47.526;10.028;2022-09-25T04:13:42;3.45;;;1.90;;
63492;SDS011;49638;47.526;10.028;2022-09-25T04:16:43;2.47;;;2.08;;
63492;SDS011;49638;47.526;10.028;2022-09-25T04:19:44;3.08;;;2.33;;
63492;SDS011;49638;47.526;10.028;2022-09-25T04:22:45;4.18;;;2.42;;
63492;SDS011;49638;47.526;10.028;2022-09-25T04:25:46;2.80;;;2.20;;
63492;SDS011;49638;47.526;10.028;2022-09-25T04:28:47;3.10;;;2.20;;
63492;SDS011;49638;47.526;10.028;2022-09-25T04:31:47;4.95;;;2.20;;
63492;SDS011;49638;47.526;10.028;2022-09-25T04:35:08;2.28;;;2.08;;
63492;SDS011;49638;47.526;10.028;2022-09-25T04:38:08;3.00;;;2.00;;
63492;SDS011;49638;47.526;10.028;2022-09-25T04:41:08;2.83;;;2.22;;
63492;SDS011;49638;47.526;10.028;2022-09-25T04:44:09;5.20;;;2.60;;
63492;SDS011;49638;47.526;10.028;2022-09-25T04:47:09;3.10;;;2.60;;
63492;SDS011;49638;47.526;10.028;2022-09-25T04:50:10;4.78;;;2.22;;
63492;SDS011;49638;47.526;10.028;2022-09-25T04:53:10;5.95;;;2.35;;
63492;SDS011;49638;47.526;10.028;2022-09-25T04:56:11;3.33;;;2.50;;
63492;SDS011;49638;47.526;10.028;2022-09-25T04:59:12;5.45;;;2.45;;
63492;SDS011;49638;47.526;10.028;2022-09-25T05:02:12;3.60;;;2.75;;
63492;SDS011;49638;47.526;10.028;2022-09-25T05:05:12;3.08;;;2.53;;
63492;SDS011;49638;47.526;10.028;2022-09-25T05:08:15;4.20;;;3.13;;
63492;SDS011;49638;47.526;10.028;2022-09-25T05:11:16;3.83;;;2.78;;
63492;SDS011;49638;47.526;10.028;2022-09-25T05:14:16;4.10;;;2.75;;
63492;SDS011;49638;47.526;10.028;2022-09-25T05:17:17;4.40;;;3.05;;
63492;SDS011;49638;47.526;10.028;2022-09-25T05:20:17;3.85;;;3.10;;
63492;SDS011;49638;47.526;10.028;2022-09-25T05:23:18;5.47;;;2.67;;
63492;SDS011;49638;47.526;10.028;2022-09-25T05:26:19;3.55;;;2.67;;
63492;SDS011;49638;47.526;10.028;2022-09-25T05:29:20;3.78;;;3.00;;
63492;SDS011;49638;47.526;10.028;2022-09-25T05:32:20;4.28;;;2.60;;
63492;SDS011;49638;47.526;10.028;2022-09-25T05:35:22;3.25;;;2.58;;
63492;SDS011;49638;47.526;10.028;2022-09-25T05:38:23;10.02;;;7.60;;
63492;SDS011;49638;47.526;10.028;2022-09-25T05:41:23;7.13;;;4.00;;
63492;SDS011;49638;47.526;10.028;2022-09-25T05:44:24;3.95;;;2.60;;
63492;SDS011;49638;47.526;10.028;2022-09-25T05:47:27;3.80;;;2.72;;
63492;SDS011;49638;47.526;10.028;2022-09-25T05:50:27;6.78;;;3.10;;
63492;SDS011;49638;47.526;10.028;2022-09-25T05:53:28;3.60;;;3.10;;
63492;SDS011;49638;47.526;10.028;2022-09-25T05:56:31;3.85;;;3.35;;
63492;SDS011;49638;47.526;10.028;2022-09-25T05:59:32;3.95;;;3.40;;
63492;SDS011;49638;47.526;10.028;2022-09-25T06:02:33;4.90;;;3.55;;
63492;SDS011;49638;47.526;10.028;2022-09-25T06:05:33;4.40;;;3.65;;
63492;SDS011;49638;47.526;10.028;2022-09-25T06:08:33;12.27;;;7.50;;
63492;SDS011;49638;47.526;10.028;2022-09-25T06:11:35;14.00;;;8.40;;
63492;SDS011;49638;47.526;10.028;2022-09-25T06:14:37;10.18;;;6.57;;
63492;SDS011;49638;47.526;10.028;2022-09-25T06:17:39;8.43;;;4.63;;
63492;SDS011;49638;47.526;10.028;2022-09-25T06:20:42;6.00;;;4.60;;
63492;SDS011;49638;47.526;10.028;2022-09-25T06:23:56;7.03;;;5.10;;
63492;SDS011;49638;47.526;10.028;2022-09-25T06:27:09;6.95;;;4.82;;
63492;SDS011;49638;47.526;10.028;2022-09-25T06:30:11;5.72;;;4.18;;
63492;SDS011;49638;47.526;10.028;2022-09-25T06:33:12;5.97;;;4.53;;
63492;SDS011;49638;47.526;10.028;2022-09-25T06:36:16;6.28;;;3.85;;
63492;SDS011;49638;47.526;10.028;2022-09-25T06:39:19;5.85;;;3.70;;
63492;SDS011;49638;47.526;10.028;2022-09-25T06:42:21;4.75;;;3.45;;
63492;SDS011;49638;47.526;10.028;2022-09-25T06:45:22;3.83;;;3.38;;
63492;SDS011;49638;47.526;10.028;2022-09-25T06:48:25;5.43;;;3.22;;
63492;SDS011;49638;47.526;10.028;2022-09-25T06:51:26;3.88;;;2.67;;
63492;SDS011;49638;47.526;10.028;2022-09-25T06:54:30;8.93;;;3.00;;
63492;SDS011;49638;47.526;10.028;2022-09-25T06:57:30;5.20;;;2.65;;
63492;SDS011;49638;47.526;10.028;2022-09-25T07:00:31;3.60;;;2.58;;
63492;SDS011;49638;47.526;10.028;2022-09-25T07:03:32;8.40;;;4.78;;
63492;SDS011;49638;47.526;10.028;2022-09-25T07:06:44;5.88;;;3.63;;
63492;SDS011;49638;47.526;10.028;2022-09-25T07:09:46;5.38;;;2.92;;
63492;SDS011;49638;47.526;10.028;2022-09-25T07:12:47;5.25;;;2.58;;
63492;SDS011;49638;47.526;10.028;2022-09-25T07:15:54;16.60;;;8.10;;
63492;SDS011;49638;47.526;10.028;2022-09-25T07:18:56;5.03;;;3.60;;
63492;SDS011;49638;47.526;10.028;2022-09-25T07:22:02;3.58;;;2.83;;
63492;SDS011;49638;47.526;10.028;2022-09-25T07:25:04;5.40;;;2.50;;
63492;SDS011;49638;47.526;10.028;2022-09-25T07:28:05;3.65;;;2.78;;
63492;SDS011;49638;47.526;10.028;2022-09-25T07:31:10;3.20;;;2.70;;
63492;SDS011;49638;47.526;10.028;2022-09-25T07:34:18;4.60;;;2.78;;
63492;SDS011;49638;47.526;10.028;2022-09-25T07:37:18;3.92;;;2.45;;
63492;SDS011;49638;47.526;10.028;2022-09-25T07:40:19;4.65;;;3.55;;
63492;SDS011;49638;47.526;10.028;2022-09-25T07:43:19;4.57;;;3.60;;
63492;SDS011;49638;47.526;10.028;2022-09-25T07:46:19;3.88;;;3.10;;
63492;SDS011;49638;47.526;10.028;2022-09-25T07:49:19;3.65;;;2.90;;
63492;SDS011;49638;47.526;10.028;2022-09-25T07:52:20;4.68;;;2.80;;
63492;SDS011;49638;47.526;10.028;2022-09-25T07:55:20;3.67;;;2.90;;
63492;SDS011;49638;47.526;10.028;2022-09-25T07:58:21;4.25;;;3.10;;
63492;SDS011;49638;47.526;10.028;2022-09-25T08:01:21;3.60;;;3.22;;
63492;SDS011;49638;47.526;10.028;2022-09-25T08:04:21;4.60;;;3.55;;
63492;SDS011;49638;47.526;10.028;2022-09-25T08:07:21;3.75;;;3.03;;
63492;SDS011;49638;47.526;10.028;2022-09-25T08:10:22;4.78;;;3.35;;
63492;SDS011;49638;47.526;10.028;2022-09-25T08:13:22;4.93;;;3.60;;
63492;SDS011;49638;47.526;10.028;2022-09-25T08:16:23;5.82;;;3.85;;
63492;SDS011;49638;47.526;10.028;2022-09-25T08:19:23;4.15;;;3.38;;
63492;SDS011;49638;47.526;10.028;2022-09-25T08:22:24;4.22;;;3.50;;
63492;SDS011;49638;47.526;10.028;2022-09-25T08:25:24;3.70;;;3.30;;
63492;SDS011;49638;47.526;10.028;2022-09-25T08:28:24;3.72;;;3.33;;
63492;SDS011;49638;47.526;10.028;2022-09-25T08:31:25;4.90;;;3.58;;
63492;SDS011;49638;47.526;10.028;2022-09-25T08:34:25;3.70;;;3.22;;
63492;SDS011;49638;47.526;10.028;2022-09-25T08:37:26;5.22;;;3.63;;
63492;SDS011;49638;47.526;10.028;2022-09-25T08:40:27;5.68;;;4.63;;
63492;SDS011;49638;47.526;10.028;2022-09-25T08:43:30;5.78;;;4.82;;
63492;SDS011;49638;47.526;10.028;2022-09-25T08:50:04;9.43;;;6.50;;
63492;SDS011;49638;47.526;10.028;2022-09-25T08:53:25;7.45;;;6.05;;
63492;SDS011;49638;47.526;10.028;2022-09-25T08:56:28;7.38;;;5.40;;
63492;SDS011;49638;47.526;10.028;2022-09-25T08:59:35;7.53;;;5.53;;
63492;SDS011;49638;47.526;10.028;2022-09-25T09:02:54;6.07;;;5.07;;
63492;SDS011;49638;47.526;10.028;2022-09-25T09:06:04;8.75;;;5.97;;
63492;SDS011;49638;47.526;10.028;2022-09-25T09:09:14;7.85;;;6.10;;
63492;SDS011;49638;47.526;10.028;2022-09-25T09:12:17;7.97;;;5.97;;
63492;SDS011;49638;47.526;10.028;2022-09-25T09:18:39;10.52;;;6.30;;
63492;SDS011;49638;47.526;10.028;2022-09-25T09:21:53;10.60;;;6.13;;
63492;SDS011;49638;47.526;10.028;2022-09-25T09:35:05;6.90;;;5.53;;
63492;SDS011;49638;47.526;10.028;2022-09-25T09:38:22;6.78;;;5.35;;
63492;SDS011;49638;47.526;10.028;2022-09-25T09:51:48;6.18;;;5.05;;
63492;SDS011;49638;47.526;10.028;2022-09-25T09:58:43;9.10;;;7.03;;
63492;SDS011;49638;47.526;10.028;2022-09-25T10:01:53;9.68;;;7.07;;
63492;SDS011;49638;47.526;10.028;2022-09-25T10:08:33;11.32;;;7.88;;
63492;SDS011;49638;47.526;10.028;2022-09-25T10:11:34;10.45;;;7.65;;
63492;SDS011;49638;47.526;10.028;2022-09-25T10:14:37;9.57;;;7.40;;
63492;SDS011;49638;47.526;10.028;2022-09-25T10:17:40;12.18;;;8.40;;
63492;SDS011;49638;47.526;10.028;2022-09-25T10:20:43;12.30;;;8.95;;
63492;SDS011;49638;47.526;10.028;2022-09-25T10:26:51;13.18;;;8.80;;
63492;SDS011;49638;47.526;10.028;2022-09-25T10:33:11;10.40;;;7.60;;
63492;SDS011;49638;47.526;10.028;2022-09-25T10:36:29;11.32;;;8.05;;
63492;SDS011;49638;47.526;10.028;2022-09-25T10:39:40;12.32;;;8.15;;
63492;SDS011;49638;47.526;10.028;2022-09-25T10:42:40;11.23;;;8.20;;
63492;SDS011;49638;47.526;10.028;2022-09-25T10:45:41;9.57;;;7.47;;
63492;SDS011;49638;47.526;10.028;2022-09-25T10:48:41;11.90;;;8.38;;
63492;SDS011;49638;47.526;10.028;2022-09-25T10:52:01;11.88;;;7.43;;
63492;SDS011;49638;47.526;10.028;2022-09-25T10:55:13;12.32;;;7.85;;
63492;SDS011;49638;47.526;10.028;2022-09-25T10:58:28;12.23;;;8.20;;
63492;SDS011;49638;47.526;10.028;2022-09-25T11:01:35;11.48;;;8.18;;
63492;SDS011;49638;47.526;10.028;2022-09-25T11:04:38;12.35;;;8.32;;
63492;SDS011;49638;47.526;10.028;2022-09-25T11:07:45;13.02;;;8.60;;
63492;SDS011;49638;47.526;10.028;2022-09-25T11:10:57;10.07;;;7.53;;
63492;SDS011;49638;47.526;10.028;2022-09-25T11:13:59;9.23;;;7.22;;
63492;SDS011;49638;47.526;10.028;2022-09-25T11:23:25;12.40;;;7.93;;
63492;SDS011;49638;47.526;10.028;2022-09-25T11:26:40;12.15;;;7.70;;
63492;SDS011;49638;47.526;10.028;2022-09-25T11:30:01;10.20;;;7.47;;
63492;SDS011;49638;47.526;10.028;2022-09-25T11:33:09;11.00;;;7.13;;
63492;SDS011;49638;47.526;10.028;2022-09-25T11:36:24;11.23;;;7.43;;
63492;SDS011;49638;47.526;10.028;2022-09-25T11:43:12;9.80;;;6.88;;
63492;SDS011;49638;47.526;10.028;2022-09-25T11:46:19;9.18;;;6.90;;
63492;SDS011;49638;47.526;10.028;2022-09-25T11:49:26;10.13;;;6.97;;
63492;SDS011;49638;47.526;10.028;2022-09-25T12:03:44;8.05;;;5.90;;
63492;SDS011;49638;47.526;10.028;2022-09-25T12:07:09;8.07;;;5.90;;
63492;SDS011;49638;47.526;10.028;2022-09-25T12:17:05;9.25;;;6.35;;
63492;SDS011;49638;47.526;10.028;2022-09-25T12:26:47;10.03;;;7.47;;
63492;SDS011;49638;47.526;10.028;2022-09-25T12:33:26;10.00;;;7.35;;
63492;SDS011;49638;47.526;10.028;2022-09-25T12:36:35;9.95;;;7.70;;
63492;SDS011;49638;47.526;10.028;2022-09-25T12:40:01;15.98;;;10.60;;
63492;SDS011;49638;47.526;10.028;2022-09-25T12:43:11;13.27;;;9.82;;
63492;SDS011;49638;47.526;10.028;2022-09-25T12:49:46;18.67;;;12.95;;
63492;SDS011;49638;47.526;10.028;2022-09-25T12:53:00;18.63;;;11.60;;
63492;SDS011;49638;47.526;10.028;2022-09-25T12:56:12;19.30;;;12.48;;
63492;SDS011;49638;47.526;10.028;2022-09-25T12:59:18;46.08;;;28.30;;
63492;SDS011;49638;47.526;10.028;2022-09-25T13:05:31;24.67;;;16.07;;
63492;SDS011;49638;47.526;10.028;2022-09-25T13:08:39;24.80;;;15.23;;
63492;SDS011;49638;47.526;10.028;2022-09-25T13:11:42;18.63;;;12.75;;
63492;SDS011;49638;47.526;10.028;2022-09-25T13:14:51;17.58;;;12.70;;
63492;SDS011;49638;47.526;10.028;2022-09-25T13:17:57;17.10;;;12.40;;
63492;SDS011;49638;47.526;10.028;2022-09-25T13:24:25;18.15;;;12.35;;
63492;SDS011;49638;47.526;10.028;2022-09-25T13:27:26;17.67;;;11.80;;
63492;SDS011;49638;47.526;10.028;2022-09-25T13:30:31;14.93;;;10.10;;
63492;SDS011;49638;47.526;10.028;2022-09-25T13:33:46;14.77;;;10.35;;
63492;SDS011;49638;47.526;10.028;2022-09-25T13:36:50;17.85;;;10.52;;
63492;SDS011;49638;47.526;10.028;2022-09-25T13:39:54;13.75;;;10.50;;
63492;SDS011;49638;47.526;10.028;2022-09-25T13:46:23;13.40;;;10.20;;
63492;SDS011;49638;47.526;10.028;2022-09-25T13:49:34;17.85;;;10.68;;
63492;SDS011;49638;47.526;10.028;2022-09-25T13:55:41;14.65;;;10.85;;
63492;SDS011;49638;47.526;10.028;2022-09-25T14:02:25;12.77;;;9.45;;
63492;SDS011;49638;47.526;10.028;2022-09-25T14:05:37;12.02;;;8.55;;
63492;SDS011;49638;47.526;10.028;2022-09-25T14:08:41;13.30;;;9.48;;
63492;SDS011;49638;47.526;10.028;2022-09-25T14:11:48;13.98;;;10.02;;
63492;SDS011;49638;47.526;10.028;2022-09-25T14:14:56;22.30;;;16.77;;
63492;SDS011;49638;47.526;10.028;2022-09-25T14:18:02;17.02;;;12.32;;
63492;SDS011;49638;47.526;10.028;2022-09-25T14:21:07;38.22;;;23.52;;
63492;SDS011;49638;47.526;10.028;2022-09-25T14:27:21;21.45;;;16.45;;
63492;SDS011;49638;47.526;10.028;2022-09-25T14:30:25;14.18;;;9.63;;
63492;SDS011;49638;47.526;10.028;2022-09-25T14:47:12;13.98;;;10.73;;
63492;SDS011;49638;47.526;10.028;2022-09-25T14:50:21;13.32;;;10.05;;
63492;SDS011;49638;47.526;10.028;2022-09-25T14:53:26;13.32;;;10.00;;
63492;SDS011;49638;47.526;10.028;2022-09-25T14:56:34;14.55;;;10.50;;
63492;SDS011;49638;47.526;10.028;2022-09-25T14:59:38;183.60;;;104.45;;
63492;SDS011;49638;47.526;10.028;2022-09-25T15:02:43;161.98;;;86.80;;
63492;SDS011;49638;47.526;10.028;2022-09-25T15:05:46;21.73;;;13.95;;
63492;SDS011;49638;47.526;10.028;2022-09-25T15:08:48;17.77;;;11.35;;
63492;SDS011;49638;47.526;10.028;2022-09-25T15:11:51;30.75;;;19.10;;
63492;SDS011;49638;47.526;10.028;2022-09-25T15:15:06;21.40;;;15.93;;
63492;SDS011;49638;47.526;10.028;2022-09-25T15:18:11;14.07;;;8.90;;
63492;SDS011;49638;47.526;10.028;2022-09-25T15:21:17;14.52;;;9.18;;
63492;SDS011;49638;47.526;10.028;2022-09-25T15:27:29;11.43;;;8.20;;
63492;SDS011;49638;47.526;10.028;2022-09-25T15:30:30;11.80;;;8.18;;
63492;SDS011;49638;47.526;10.028;2022-09-25T15:33:35;11.95;;;8.50;;
63492;SDS011;49638;47.526;10.028;2022-09-25T15:36:37;12.93;;;7.70;;
63492;SDS011;49638;47.526;10.028;2022-09-25T15:39:41;12.57;;;8.30;;
63492;SDS011;49638;47.526;10.028;2022-09-25T15:42:43;12.25;;;8.55;;
63492;SDS011;49638;47.526;10.028;2022-09-25T15:45:47;11.43;;;8.48;;
63492;SDS011;49638;47.526;10.028;2022-09-25T15:51:54;10.40;;;7.38;;
63492;SDS011;49638;47.526;10.028;2022-09-25T15:54:59;9.90;;;7.38;;
63492;SDS011;49638;47.526;10.028;2022-09-25T15:58:03;9.43;;;6.47;;
63492;SDS011;49638;47.526;10.028;2022-09-25T16:01:10;10.02;;;6.80;;
63492;SDS011;49638;47.526;10.028;2022-09-25T16:04:32;13.88;;;9.68;;
63492;SDS011;49638;47.526;10.028;2022-09-25T16:07:50;9.02;;;7.07;;
63492;SDS011;49638;47.526;10.028;2022-09-25T16:14:34;12.80;;;10.27;;
63492;SDS011;49638;47.526;10.028;2022-09-25T16:17:39;12.10;;;8.45;;
63492;SDS011;49638;47.526;10.028;2022-09-25T16:20:40;11.73;;;8.32;;
63492;SDS011;49638;47.526;10.028;2022-09-25T16:23:41;10.60;;;7.47;;
63492;SDS011;49638;47.526;10.028;2022-09-25T16:26:42;12.65;;;8.65;;
63492;SDS011;49638;47.526;10.028;2022-09-25T16:29:44;15.00;;;10.57;;
63492;SDS011;49638;47.526;10.028;2022-09-25T16:32:45;23.55;;;17.20;;
63492;SDS011;49638;47.526;10.028;2022-09-25T16:36:10;20.88;;;13.57;;
63492;SDS011;49638;47.526;10.028;2022-09-25T16:39:26;14.75;;;9.23;;
63492;SDS011;49638;47.526;10.028;2022-09-25T16:42:29;10.77;;;8.77;;
63492;SDS011;49638;47.526;10.028;2022-09-25T16:45:34;10.85;;;7.93;;
63492;SDS011;49638;47.526;10.028;2022-09-25T16:48:35;15.50;;;11.48;;
63492;SDS011;49638;47.526;10.028;2022-09-25T16:51:39;13.33;;;10.30;;
63492;SDS011;49638;47.526;10.028;2022-09-25T16:54:44;10.40;;;7.53;;
63492;SDS011;49638;47.526;10.028;2022-09-25T16:57:47;11.77;;;8.10;;
63492;SDS011;49638;47.526;10.028;2022-09-25T17:00:49;14.20;;;10.35;;
63492;SDS011;49638;47.526;10.028;2022-09-25T17:03:49;12.20;;;8.48;;
63492;SDS011;49638;47.526;10.028;2022-09-25T17:06:51;13.40;;;9.40;;
63492;SDS011;49638;47.526;10.028;2022-09-25T17:09:53;14.93;;;10.40;;
63492;SDS011;49638;47.526;10.028;2022-09-25T17:12:54;16.40;;;12.27;;
63492;SDS011;49638;47.526;10.028;2022-09-25T17:15:56;17.25;;;11.30;;
63492;SDS011;49638;47.526;10.028;2022-09-25T17:18:56;15.80;;;11.07;;
63492;SDS011;49638;47.526;10.028;2022-09-25T17:21:56;14.07;;;10.25;;
63492;SDS011;49638;47.526;10.028;2022-09-25T17:24:58;15.02;;;10.65;;
63492;SDS011;49638;47.526;10.028;2022-09-25T17:28:02;15.07;;;10.15;;
63492;SDS011;49638;47.526;10.028;2022-09-25T17:31:14;14.32;;;10.57;;
63492;SDS011;49638;47.526;10.028;2022-09-25T17:37:16;15.48;;;11.20;;
63492;SDS011;49638;47.526;10.028;2022-09-25T17:40:17;12.55;;;9.05;;
63492;SDS011;49638;47.526;10.028;2022-09-25T17:43:18;13.57;;;8.57;;
63492;SDS011;49638;47.526;10.028;2022-09-25T17:46:19;12.68;;;9.52;;
63492;SDS011;49638;47.526;10.028;2022-09-25T17:49:20;6.93;;;4.50;;
63492;SDS011;49638;47.526;10.028;2022-09-25T17:52:22;3.22;;;2.80;;
63492;SDS011;49638;47.526;10.028;2022-09-25T17:55:22;3.60;;;2.40;;
63492;SDS011;49638;47.526;10.028;2022-09-25T17:58:23;4.50;;;3.60;;
63492;SDS011;49638;47.526;10.028;2022-09-25T18:01:25;4.43;;;2.83;;
63492;SDS011;49638;47.526;10.028;2022-09-25T18:04:27;3.85;;;3.13;;
63492;SDS011;49638;47.526;10.028;2022-09-25T18:07:27;4.25;;;2.95;;
63492;SDS011;49638;47.526;10.028;2022-09-25T18:10:27;3.60;;;2.83;;
63492;SDS011;49638;47.526;10.028;2022-09-25T18:13:28;3.42;;;2.50;;
63492;SDS011;49638;47.526;10.028;2022-09-25T18:16:29;3.33;;;2.50;;
63492;SDS011;49638;47.526;10.028;2022-09-25T18:19:30;4.97;;;3.45;;
63492;SDS011;49638;47.526;10.028;2022-09-25T18:22:49;5.72;;;3.60;;
63492;SDS011;49638;47.526;10.028;2022-09-25T18:25:50;4.03;;;3.60;;
63492;SDS011;49638;47.526;10.028;2022-09-25T18:28:51;3.60;;;2.95;;
63492;SDS011;49638;47.526;10.028;2022-09-25T18:31:51;4.07;;;3.22;;
63492;SDS011;49638;47.526;10.028;2022-09-25T18:34:51;3.45;;;3.15;;
63492;SDS011;49638;47.526;10.028;2022-09-25T18:37:52;2.00;;;1.80;;
63492;SDS011;49638;47.526;10.028;2022-09-25T18:40:52;4.07;;;2.08;;
63492;SDS011;49638;47.526;10.028;2022-09-25T18:43:52;2.40;;;1.92;;
63492;SDS011;49638;47.526;10.028;2022-09-25T18:46:53;2.45;;;2.00;;
63492;SDS011;49638;47.526;10.028;2022-09-25T18:49:54;3.40;;;2.03;;
63492;SDS011;49638;47.526;10.028;2022-09-25T18:52:54;2.03;;;1.55;;
63492;SDS011;49638;47.526;10.028;2022-09-25T18:55:55;1.50;;;1.15;;
63492;SDS011;49638;47.526;10.028;2022-09-25T18:58:58;1.40;;;1.05;;
63492;SDS011;49638;47.526;10.028;2022-09-25T19:01:59;1.45;;;1.10;;
63492;SDS011;49638;47.526;10.028;2022-09-25T19:04:59;1.45;;;1.23;;
63492;SDS011;49638;47.526;10.028;2022-09-25T19:08:00;1.75;;;1.63;;
63492;SDS011;49638;47.526;10.028;2022-09-25T19:11:02;3.63;;;1.90;;
63492;SDS011;49638;47.526;10.028;2022-09-25T19:14:11;6.00;;;1.58;;
63492;SDS011;49638;47.526;10.028;2022-09-25T19:17:13;3.75;;;2.10;;
63492;SDS011;49638;47.526;10.028;2022-09-25T19:20:14;2.47;;;1.95;;
63492;SDS011;49638;47.526;10.028;2022-09-25T19:23:16;3.08;;;1.80;;
63492;SDS011;49638;47.526;10.028;2022-09-25T19:26:18;7.30;;;4.68;;
63492;SDS011;49638;47.526;10.028;2022-09-25T19:29:21;3.47;;;2.42;;
63492;SDS011;49638;47.526;10.028;2022-09-25T19:32:21;2.22;;;2.03;;
63492;SDS011;49638;47.526;10.028;2022-09-25T19:35:23;5.95;;;5.07;;
63492;SDS011;49638;47.526;10.028;2022-09-25T19:38:24;4.85;;;3.00;;
63492;SDS011;49638;47.526;10.028;2022-09-25T19:41:27;3.53;;;2.80;;
63492;SDS011;49638;47.526;10.028;2022-09-25T19:44:29;5.20;;;2.92;;
63492;SDS011;49638;47.526;10.028;2022-09-25T19:47:31;3.72;;;2.70;;
63492;SDS011;49638;47.526;10.028;2022-09-25T19:50:31;4.63;;;2.85;;
63492;SDS011;49638;47.526;10.028;2022-09-25T19:53:32;3.33;;;2.83;;
63492;SDS011;49638;47.526;10.028;2022-09-25T19:56:34;4.28;;;2.10;;
63492;SDS011;49638;47.526;10.028;2022-09-25T19:59:39;2.47;;;2.15;;
63492;SDS011;49638;47.526;10.028;2022-09-25T20:02:42;2.85;;;2.38;;
63492;SDS011;49638;47.526;10.028;2022-09-25T20:05:44;2.58;;;2.15;;
63492;SDS011;49638;47.526;10.028;2022-09-25T20:08:47;2.55;;;2.10;;
63492;SDS011;49638;47.526;10.028;2022-09-25T20:11:47;3.63;;;3.00;;
63492;SDS011;49638;47.526;10.028;2022-09-25T20:14:48;2.35;;;2.13;;
63492;SDS011;49638;47.526;10.028;2022-09-25T20:17:49;2.25;;;1.85;;
63492;SDS011;49638;47.526;10.028;2022-09-25T20:20:49;2.90;;;2.20;;
63492;SDS011;49638;47.526;10.028;2022-09-25T20:23:51;4.80;;;2.67;;
63492;SDS011;49638;47.526;10.028;2022-09-25T20:26:52;3.00;;;2.47;;
63492;SDS011;49638;47.526;10.028;2022-09-25T20:29:52;4.13;;;2.67;;
63492;SDS011;49638;47.526;10.028;2022-09-25T20:32:53;3.47;;;2.65;;
63492;SDS011;49638;47.526;10.028;2022-09-25T20:35:54;3.78;;;2.58;;